sensor_id;sensor_type;location;lat;lon;timestamp;pressure;altitude;pressure_sealevel;temperature;humidity
57452;BME280;54295;51.224;-0.164;2022-09-16T00:00:11;100802.12;;;15.03;41.11
57452;BME280;54295;51.224;-0.164;2022-09-16T00:02:38;100800.51;;;15.55;41.25
57452;BME280;54295;51.224;-0.164;2022-09-16T00:05:06;100805.74;;;15.83;40.41
57452;BME280;54295;51.224;-0.164;2022-09-16T00:07:34;100811.22;;;15.07;41.17
57452;BME280;54295;51.224;-0.164;2022-09-16T00:10:02;100811.46;;;15.34;41.47
57452;BME280;54295;51.224;-0.164;2022-09-16T00:12:30;100806.64;;;15.46;41.55
57452;BME280;54295;51.224;-0.164;2022-09-16T00:14:57;100808.80;;;14.72;42.32
57452;BME280;54295;51.224;-0.164;2022-09-16T00:17:25;100809.68;;;15.37;42.28
57452;BME280;54295;51.224;-0.164;2022-09-16T00:19:52;100812.08;;;15.49;41.67
57452;BME280;54295;51.224;-0.164;2022-09-16T00:22:19;100812.61;;;15.07;41.92
57452;BME280;54295;51.224;-0.164;2022-09-16T00:24:47;100816.26;;;15.01;42.23
57452;BME280;54295;51.224;-0.164;2022-09-16T00:27:15;100816.03;;;15.51;41.82
57452;BME280;54295;51.224;-0.164;2022-09-16T00:29:42;100813.12;;;15.31;42.67
57452;BME280;54295;51.224;-0.164;2022-09-16T00:32:10;100814.66;;;15.10;42.05
57452;BME280;54295;51.224;-0.164;2022-09-16T00:34:37;100816.23;;;15.46;42.26
57452;BME280;54295;51.224;-0.164;2022-09-16T00:37:04;100818.91;;;15.62;42.04
57452;BME280;54295;51.224;-0.164;2022-09-16T00:39:32;100819.20;;;15.56;42.11
57452;BME280;54295;51.224;-0.164;2022-09-16T00:42:00;100820.02;;;15.55;42.33
57452;BME280;54295;51.224;-0.164;2022-09-16T00:45:02;100816.03;;;14.99;43.03
57452;BME280;54295;51.224;-0.164;2022-09-16T00:47:32;100814.52;;;15.18;43.50
57452;BME280;54295;51.224;-0.164;2022-09-16T00:50:06;100816.97;;;14.65;43.93
57452;BME280;54295;51.224;-0.164;2022-09-16T00:52:34;100813.17;;;15.16;43.59
57452;BME280;54295;51.224;-0.164;2022-09-16T00:55:06;100816.42;;;15.07;43.84
57452;BME280;54295;51.224;-0.164;2022-09-16T00:57:35;100819.56;;;15.13;43.64
57452;BME280;54295;51.224;-0.164;2022-09-16T01:00:05;100819.59;;;14.93;44.18
57452;BME280;54295;51.224;-0.164;2022-09-16T01:02:32;100823.50;;;14.82;44.44
57452;BME280;54295;51.224;-0.164;2022-09-16T01:05:03;100824.90;;;14.28;45.59
57452;BME280;54295;51.224;-0.164;2022-09-16T01:07:35;100827.36;;;14.28;45.65
57452;BME280;54295;51.224;-0.164;2022-09-16T01:10:06;100828.09;;;14.78;45.09
57452;BME280;54295;51.224;-0.164;2022-09-16T01:12:34;100825.88;;;14.69;45.42
57452;BME280;54295;51.224;-0.164;2022-09-16T01:15:04;100823.00;;;14.32;45.78
57452;BME280;54295;51.224;-0.164;2022-09-16T01:17:44;100822.34;;;14.56;45.60
57452;BME280;54295;51.224;-0.164;2022-09-16T01:21:36;100821.07;;;14.49;46.15
57452;BME280;54295;51.224;-0.164;2022-09-16T01:24:50;100820.74;;;14.18;45.91
57452;BME280;54295;51.224;-0.164;2022-09-16T01:29:43;100822.38;;;14.38;45.91
57452;BME280;54295;51.224;-0.164;2022-09-16T01:32:17;100823.63;;;14.43;45.88
57452;BME280;54295;51.224;-0.164;2022-09-16T01:34:54;100821.64;;;14.01;46.24
57452;BME280;54295;51.224;-0.164;2022-09-16T01:37:30;100823.75;;;14.08;46.78
57452;BME280;54295;51.224;-0.164;2022-09-16T01:40:05;100820.78;;;13.99;46.72
57452;BME280;54295;51.224;-0.164;2022-09-16T01:42:38;100822.86;;;13.77;46.73
57452;BME280;54295;51.224;-0.164;2022-09-16T01:45:16;100821.83;;;13.84;46.44
57452;BME280;54295;51.224;-0.164;2022-09-16T01:47:51;100819.83;;;13.47;46.58
57452;BME280;54295;51.224;-0.164;2022-09-16T01:50:25;100819.87;;;13.00;46.79
57452;BME280;54295;51.224;-0.164;2022-09-16T01:52:59;100814.66;;;13.62;47.11
57452;BME280;54295;51.224;-0.164;2022-09-16T01:55:32;100814.73;;;13.50;46.31
57452;BME280;54295;51.224;-0.164;2022-09-16T01:58:07;100814.02;;;13.37;46.32
57452;BME280;54295;51.224;-0.164;2022-09-16T02:00:39;100813.66;;;13.52;45.97
57452;BME280;54295;51.224;-0.164;2022-09-16T02:03:10;100812.58;;;13.07;46.87
57452;BME280;54295;51.224;-0.164;2022-09-16T02:05:42;100813.39;;;12.88;47.37
57452;BME280;54295;51.224;-0.164;2022-09-16T02:08:14;100808.72;;;13.20;46.88
57452;BME280;54295;51.224;-0.164;2022-09-16T02:10:46;100812.96;;;13.86;46.09
57452;BME280;54295;51.224;-0.164;2022-09-16T02:13:19;100815.92;;;13.81;46.16
57452;BME280;54295;51.224;-0.164;2022-09-16T02:15:50;100817.67;;;12.65;47.87
57452;BME280;54295;51.224;-0.164;2022-09-16T02:18:22;100818.36;;;13.74;46.50
57452;BME280;54295;51.224;-0.164;2022-09-16T02:20:53;100821.80;;;12.70;48.06
57452;BME280;54295;51.224;-0.164;2022-09-16T02:23:25;100824.84;;;13.34;47.65
57452;BME280;54295;51.224;-0.164;2022-09-16T02:25:57;100827.75;;;13.38;47.37
57452;BME280;54295;51.224;-0.164;2022-09-16T02:28:29;100827.90;;;13.74;46.47
57452;BME280;54295;51.224;-0.164;2022-09-16T02:31:01;100831.75;;;14.37;45.79
57452;BME280;54295;51.224;-0.164;2022-09-16T02:33:32;100832.65;;;13.98;46.27
57452;BME280;54295;51.224;-0.164;2022-09-16T02:36:04;100831.18;;;13.54;46.57
57452;BME280;54295;51.224;-0.164;2022-09-16T02:38:35;100832.26;;;14.03;45.65
57452;BME280;54295;51.224;-0.164;2022-09-16T02:41:06;100833.10;;;13.97;45.74
57452;BME280;54295;51.224;-0.164;2022-09-16T02:43:34;100834.66;;;14.00;46.15
57452;BME280;54295;51.224;-0.164;2022-09-16T02:46:06;100833.49;;;14.09;45.61
57452;BME280;54295;51.224;-0.164;2022-09-16T02:48:41;100832.40;;;14.33;45.22
57452;BME280;54295;51.224;-0.164;2022-09-16T02:51:17;100833.20;;;14.28;45.47
57452;BME280;54295;51.224;-0.164;2022-09-16T02:53:52;100829.02;;;14.80;45.50
57452;BME280;54295;51.224;-0.164;2022-09-16T02:56:28;100832.82;;;14.25;46.22
57452;BME280;54295;51.224;-0.164;2022-09-16T02:58:56;100837.62;;;13.82;47.22
57452;BME280;54295;51.224;-0.164;2022-09-16T03:01:23;100838.55;;;14.03;47.19
57452;BME280;54295;51.224;-0.164;2022-09-16T03:03:54;100839.55;;;14.00;47.28
57452;BME280;54295;51.224;-0.164;2022-09-16T03:06:23;100836.78;;;13.94;47.43
57452;BME280;54295;51.224;-0.164;2022-09-16T03:08:51;100834.06;;;13.67;48.03
57452;BME280;54295;51.224;-0.164;2022-09-16T03:11:27;100837.82;;;13.73;47.92
57452;BME280;54295;51.224;-0.164;2022-09-16T03:14:08;100839.70;;;13.52;48.27
57452;BME280;54295;51.224;-0.164;2022-09-16T03:16:46;100841.37;;;13.58;48.10
57452;BME280;54295;51.224;-0.164;2022-09-16T03:19:19;100838.59;;;13.29;48.37
57452;BME280;54295;51.224;-0.164;2022-09-16T03:21:52;100836.29;;;13.01;49.37
57452;BME280;54295;51.224;-0.164;2022-09-16T03:24:27;100841.74;;;13.29;48.71
57452;BME280;54295;51.224;-0.164;2022-09-16T03:27:02;100843.06;;;13.33;48.63
57452;BME280;54295;51.224;-0.164;2022-09-16T03:29:37;100839.47;;;13.06;49.30
57452;BME280;54295;51.224;-0.164;2022-09-16T03:32:11;100838.90;;;12.64;50.09
57452;BME280;54295;51.224;-0.164;2022-09-16T03:34:47;100839.70;;;12.67;50.45
57452;BME280;54295;51.224;-0.164;2022-09-16T03:37:18;100832.62;;;13.12;49.96
57452;BME280;54295;51.224;-0.164;2022-09-16T03:39:48;100835.42;;;13.11;49.93
57452;BME280;54295;51.224;-0.164;2022-09-16T03:42:17;100833.23;;;12.97;49.75
57452;BME280;54295;51.224;-0.164;2022-09-16T03:44:44;100834.99;;;13.12;49.37
57452;BME280;54295;51.224;-0.164;2022-09-16T03:47:11;100835.29;;;12.62;50.18
57452;BME280;54295;51.224;-0.164;2022-09-16T03:49:39;100835.84;;;13.17;49.32
57452;BME280;54295;51.224;-0.164;2022-09-16T03:52:06;100839.15;;;13.09;49.50
57452;BME280;54295;51.224;-0.164;2022-09-16T03:54:34;100841.70;;;13.03;49.30
57452;BME280;54295;51.224;-0.164;2022-09-16T03:57:02;100843.96;;;13.15;49.12
57452;BME280;54295;51.224;-0.164;2022-09-16T03:59:29;100842.97;;;13.14;48.79
57452;BME280;54295;51.224;-0.164;2022-09-16T04:01:56;100845.37;;;12.74;49.46
57452;BME280;54295;51.224;-0.164;2022-09-16T04:04:24;100840.81;;;12.99;49.32
57452;BME280;54295;51.224;-0.164;2022-09-16T04:06:51;100842.01;;;12.47;49.95
57452;BME280;54295;51.224;-0.164;2022-09-16T04:09:18;100839.59;;;12.55;50.19
57452;BME280;54295;51.224;-0.164;2022-09-16T04:11:45;100841.75;;;12.56;50.41
57452;BME280;54295;51.224;-0.164;2022-09-16T04:14:13;100839.24;;;12.00;50.90
57452;BME280;54295;51.224;-0.164;2022-09-16T04:16:40;100841.88;;;11.89;51.57
57452;BME280;54295;51.224;-0.164;2022-09-16T04:19:09;100844.43;;;12.36;50.82
57452;BME280;54295;51.224;-0.164;2022-09-16T04:21:37;100840.78;;;11.90;50.84
57452;BME280;54295;51.224;-0.164;2022-09-16T04:24:05;100838.97;;;12.53;50.18
57452;BME280;54295;51.224;-0.164;2022-09-16T04:26:33;100836.05;;;12.86;49.46
57452;BME280;54295;51.224;-0.164;2022-09-16T04:29:00;100835.50;;;12.74;49.28
57452;BME280;54295;51.224;-0.164;2022-09-16T04:31:27;100834.51;;;12.32;49.73
57452;BME280;54295;51.224;-0.164;2022-09-16T04:33:54;100828.99;;;12.88;48.88
57452;BME280;54295;51.224;-0.164;2022-09-16T04:36:22;100834.29;;;13.40;48.93
57452;BME280;54295;51.224;-0.164;2022-09-16T04:38:49;100842.80;;;13.04;48.65
57452;BME280;54295;51.224;-0.164;2022-09-16T04:41:18;100849.19;;;12.94;48.96
57452;BME280;54295;51.224;-0.164;2022-09-16T04:43:50;100848.86;;;13.36;48.21
57452;BME280;54295;51.224;-0.164;2022-09-16T04:46:17;100847.78;;;13.37;47.93
57452;BME280;54295;51.224;-0.164;2022-09-16T04:48:46;100838.95;;;13.57;47.63
57452;BME280;54295;51.224;-0.164;2022-09-16T04:51:13;100839.21;;;13.71;47.55
57452;BME280;54295;51.224;-0.164;2022-09-16T04:53:42;100845.70;;;13.91;47.25
57452;BME280;54295;51.224;-0.164;2022-09-16T04:56:11;100843.56;;;13.88;47.39
57452;BME280;54295;51.224;-0.164;2022-09-16T04:58:39;100845.89;;;13.73;47.41
57452;BME280;54295;51.224;-0.164;2022-09-16T05:01:08;100847.37;;;14.30;46.84
57452;BME280;54295;51.224;-0.164;2022-09-16T05:03:34;100842.94;;;14.09;46.84
57452;BME280;54295;51.224;-0.164;2022-09-16T05:06:05;100847.77;;;13.88;46.86
57452;BME280;54295;51.224;-0.164;2022-09-16T05:08:33;100846.81;;;13.97;47.21
57452;BME280;54295;51.224;-0.164;2022-09-16T05:11:04;100840.58;;;13.78;47.31
57452;BME280;54295;51.224;-0.164;2022-09-16T05:13:31;100842.30;;;13.75;47.57
57452;BME280;54295;51.224;-0.164;2022-09-16T05:16:01;100848.86;;;14.19;47.23
57452;BME280;54295;51.224;-0.164;2022-09-16T05:18:29;100848.15;;;14.01;47.08
57452;BME280;54295;51.224;-0.164;2022-09-16T05:20:57;100847.01;;;14.11;46.91
57452;BME280;54295;51.224;-0.164;2022-09-16T05:23:25;100846.82;;;14.09;47.76
57452;BME280;54295;51.224;-0.164;2022-09-16T05:25:53;100855.34;;;13.80;47.79
57452;BME280;54295;51.224;-0.164;2022-09-16T05:28:20;100856.89;;;13.79;47.73
57452;BME280;54295;51.224;-0.164;2022-09-16T05:30:47;100862.67;;;13.65;47.84
57452;BME280;54295;51.224;-0.164;2022-09-16T05:33:15;100859.02;;;13.64;47.97
57452;BME280;54295;51.224;-0.164;2022-09-16T05:35:42;100861.94;;;13.41;48.47
57452;BME280;54295;51.224;-0.164;2022-09-16T05:38:09;100866.14;;;13.30;48.78
57452;BME280;54295;51.224;-0.164;2022-09-16T05:40:36;100865.91;;;13.02;49.25
57452;BME280;54295;51.224;-0.164;2022-09-16T05:43:04;100868.96;;;12.71;49.76
57452;BME280;54295;51.224;-0.164;2022-09-16T05:45:31;100864.54;;;13.06;49.01
57452;BME280;54295;51.224;-0.164;2022-09-16T05:47:58;100871.00;;;13.21;48.87
57452;BME280;54295;51.224;-0.164;2022-09-16T05:50:25;100871.67;;;13.35;48.59
57452;BME280;54295;51.224;-0.164;2022-09-16T05:52:52;100872.69;;;13.42;48.28
57452;BME280;54295;51.224;-0.164;2022-09-16T05:55:20;100873.78;;;13.64;48.01
57452;BME280;54295;51.224;-0.164;2022-09-16T05:57:47;100869.40;;;13.88;47.72
57452;BME280;54295;51.224;-0.164;2022-09-16T06:00:15;100872.00;;;13.79;47.52
57452;BME280;54295;51.224;-0.164;2022-09-16T06:02:42;100877.85;;;11.43;51.58
57452;BME280;54295;51.224;-0.164;2022-09-16T06:05:09;100876.15;;;13.55;48.30
57452;BME280;54295;51.224;-0.164;2022-09-16T06:07:36;100883.60;;;13.75;48.09
57452;BME280;54295;51.224;-0.164;2022-09-16T06:10:04;100885.25;;;13.61;48.86
57452;BME280;54295;51.224;-0.164;2022-09-16T06:12:31;100883.25;;;13.32;48.93
57452;BME280;54295;51.224;-0.164;2022-09-16T06:14:59;100884.46;;;13.28;48.86
57452;BME280;54295;51.224;-0.164;2022-09-16T06:17:26;100882.95;;;13.40;48.93
57452;BME280;54295;51.224;-0.164;2022-09-16T06:19:53;100884.88;;;13.24;49.01
57452;BME280;54295;51.224;-0.164;2022-09-16T06:22:20;100881.08;;;13.06;49.40
57452;BME280;54295;51.224;-0.164;2022-09-16T06:24:48;100883.86;;;13.02;49.94
57452;BME280;54295;51.224;-0.164;2022-09-16T06:27:15;100880.84;;;13.46;48.78
57452;BME280;54295;51.224;-0.164;2022-09-16T06:29:42;100883.85;;;13.27;49.16
57452;BME280;54295;51.224;-0.164;2022-09-16T06:32:09;100890.00;;;13.12;49.24
57452;BME280;54295;51.224;-0.164;2022-09-16T06:34:37;100899.90;;;12.62;50.46
57452;BME280;54295;51.224;-0.164;2022-09-16T06:37:04;100902.68;;;12.51;51.25
57452;BME280;54295;51.224;-0.164;2022-09-16T06:39:31;100905.82;;;12.67;50.70
57452;BME280;54295;51.224;-0.164;2022-09-16T06:41:58;100905.69;;;12.55;50.54
57452;BME280;54295;51.224;-0.164;2022-09-16T06:44:26;100909.03;;;12.64;50.30
57452;BME280;54295;51.224;-0.164;2022-09-16T06:46:53;100910.30;;;12.81;50.16
57452;BME280;54295;51.224;-0.164;2022-09-16T06:49:20;100907.95;;;12.14;51.08
57452;BME280;54295;51.224;-0.164;2022-09-16T06:51:47;100908.02;;;12.63;50.46
57452;BME280;54295;51.224;-0.164;2022-09-16T06:54:15;100912.00;;;13.00;49.92
57452;BME280;54295;51.224;-0.164;2022-09-16T06:56:42;100913.25;;;12.18;52.06
57452;BME280;54295;51.224;-0.164;2022-09-16T06:59:09;100917.72;;;13.17;49.91
57452;BME280;54295;51.224;-0.164;2022-09-16T07:01:36;100917.48;;;13.42;49.92
57452;BME280;54295;51.224;-0.164;2022-09-16T07:04:05;100912.36;;;13.72;49.01
57452;BME280;54295;51.224;-0.164;2022-09-16T07:06:33;100914.99;;;14.25;48.46
57452;BME280;54295;51.224;-0.164;2022-09-16T07:09:00;100914.00;;;13.69;48.61
57452;BME280;54295;51.224;-0.164;2022-09-16T07:11:27;100912.15;;;13.98;48.29
57452;BME280;54295;51.224;-0.164;2022-09-16T07:13:54;100913.55;;;13.81;48.01
57452;BME280;54295;51.224;-0.164;2022-09-16T07:16:23;100910.86;;;14.28;48.19
57452;BME280;54295;51.224;-0.164;2022-09-16T07:18:52;100916.44;;;13.93;48.27
57452;BME280;54295;51.224;-0.164;2022-09-16T07:21:21;100916.83;;;14.09;48.21
57452;BME280;54295;51.224;-0.164;2022-09-16T07:23:49;100919.10;;;13.80;48.95
57452;BME280;54295;51.224;-0.164;2022-09-16T07:26:17;100918.32;;;14.29;47.89
57452;BME280;54295;51.224;-0.164;2022-09-16T07:28:46;100916.91;;;14.45;47.39
57452;BME280;54295;51.224;-0.164;2022-09-16T07:31:16;100920.35;;;13.73;48.16
57452;BME280;54295;51.224;-0.164;2022-09-16T07:33:45;100922.54;;;13.62;48.74
57452;BME280;54295;51.224;-0.164;2022-09-16T07:36:15;100927.18;;;12.43;50.35
57452;BME280;54295;51.224;-0.164;2022-09-16T07:38:42;100929.51;;;13.70;48.74
57452;BME280;54295;51.224;-0.164;2022-09-16T07:41:11;100929.48;;;14.31;47.41
57452;BME280;54295;51.224;-0.164;2022-09-16T07:43:39;100930.87;;;14.07;47.73
57452;BME280;54295;51.224;-0.164;2022-09-16T07:46:08;100934.76;;;13.14;49.77
57452;BME280;54295;51.224;-0.164;2022-09-16T07:48:36;100937.60;;;12.77;50.78
57452;BME280;54295;51.224;-0.164;2022-09-16T07:51:06;100942.11;;;13.04;50.74
57452;BME280;54295;51.224;-0.164;2022-09-16T07:53:34;100941.01;;;13.66;48.95
57452;BME280;54295;51.224;-0.164;2022-09-16T07:56:03;100944.38;;;12.37;50.46
57452;BME280;54295;51.224;-0.164;2022-09-16T07:58:30;100949.83;;;14.10;48.67
57452;BME280;54295;51.224;-0.164;2022-09-16T08:00:57;100948.48;;;13.24;49.70
57452;BME280;54295;51.224;-0.164;2022-09-16T08:03:25;100951.96;;;12.74;50.36
57452;BME280;54295;51.224;-0.164;2022-09-16T08:05:52;100950.21;;;12.07;51.81
57452;BME280;54295;51.224;-0.164;2022-09-16T08:08:25;100954.32;;;12.97;50.53
57452;BME280;54295;51.224;-0.164;2022-09-16T08:10:53;100957.82;;;13.45;50.10
57452;BME280;54295;51.224;-0.164;2022-09-16T08:13:20;100954.89;;;12.77;50.81
57452;BME280;54295;51.224;-0.164;2022-09-16T08:15:47;100952.46;;;13.31;49.88
57452;BME280;54295;51.224;-0.164;2022-09-16T08:18:15;100949.26;;;13.73;49.26
57452;BME280;54295;51.224;-0.164;2022-09-16T08:20:42;100957.07;;;12.95;49.95
57452;BME280;54295;51.224;-0.164;2022-09-16T08:23:09;100960.29;;;13.98;49.08
57452;BME280;54295;51.224;-0.164;2022-09-16T08:25:36;100963.46;;;13.17;49.34
57452;BME280;54295;51.224;-0.164;2022-09-16T08:28:03;100963.54;;;12.93;50.07
57452;BME280;54295;51.224;-0.164;2022-09-16T08:30:30;100963.83;;;13.56;49.33
57452;BME280;54295;51.224;-0.164;2022-09-16T08:32:58;100971.39;;;12.89;50.45
57452;BME280;54295;51.224;-0.164;2022-09-16T08:35:26;100972.09;;;12.34;51.31
57452;BME280;54295;51.224;-0.164;2022-09-16T08:37:53;100972.92;;;12.45;51.93
57452;BME280;54295;51.224;-0.164;2022-09-16T08:40:22;100975.85;;;12.77;50.42
57452;BME280;54295;51.224;-0.164;2022-09-16T08:42:58;100976.69;;;13.36;50.49
57452;BME280;54295;51.224;-0.164;2022-09-16T08:45:32;100982.12;;;13.87;48.98
57452;BME280;54295;51.224;-0.164;2022-09-16T08:48:12;100985.76;;;13.01;51.56
57452;BME280;54295;51.224;-0.164;2022-09-16T08:50:46;100984.89;;;13.62;49.45
57452;BME280;54295;51.224;-0.164;2022-09-16T08:53:20;100986.09;;;13.38;49.44
57452;BME280;54295;51.224;-0.164;2022-09-16T08:55:50;100988.99;;;12.89;50.75
57452;BME280;54295;51.224;-0.164;2022-09-16T08:58:19;100995.32;;;13.18;50.48
57452;BME280;54295;51.224;-0.164;2022-09-16T09:00:51;100991.17;;;13.01;50.63
57452;BME280;54295;51.224;-0.164;2022-09-16T09:03:27;100994.43;;;12.80;50.72
57452;BME280;54295;51.224;-0.164;2022-09-16T09:05:58;100990.88;;;12.47;51.64
57452;BME280;54295;51.224;-0.164;2022-09-16T09:08:38;100993.51;;;12.24;51.49
57452;BME280;54295;51.224;-0.164;2022-09-16T09:11:11;101000.67;;;12.46;51.31
57452;BME280;54295;51.224;-0.164;2022-09-16T09:13:54;101012.03;;;11.60;51.55
57452;BME280;54295;51.224;-0.164;2022-09-16T09:16:33;101009.00;;;12.86;50.09
57452;BME280;54295;51.224;-0.164;2022-09-16T09:19:12;101013.83;;;12.66;49.73
57452;BME280;54295;51.224;-0.164;2022-09-16T09:21:49;101011.09;;;12.99;49.83
57452;BME280;54295;51.224;-0.164;2022-09-16T09:24:30;101013.33;;;12.54;48.88
57452;BME280;54295;51.224;-0.164;2022-09-16T09:27:09;101016.26;;;12.14;50.64
57452;BME280;54295;51.224;-0.164;2022-09-16T09:29:51;101019.43;;;12.34;49.42
57452;BME280;54295;51.224;-0.164;2022-09-16T09:32:26;101012.85;;;12.65;50.17
57452;BME280;54295;51.224;-0.164;2022-09-16T09:35:06;101014.48;;;12.15;49.66
57452;BME280;54295;51.224;-0.164;2022-09-16T09:37:48;101017.05;;;12.87;48.93
57452;BME280;54295;51.224;-0.164;2022-09-16T09:40:25;101012.95;;;13.40;47.51
57452;BME280;54295;51.224;-0.164;2022-09-16T09:43:04;101015.51;;;12.57;48.50
57452;BME280;54295;51.224;-0.164;2022-09-16T09:45:35;101016.28;;;12.58;47.92
57452;BME280;54295;51.224;-0.164;2022-09-16T09:48:12;101023.14;;;12.60;49.84
57452;BME280;54295;51.224;-0.164;2022-09-16T09:50:44;101019.07;;;13.52;47.33
57452;BME280;54295;51.224;-0.164;2022-09-16T09:53:18;101023.56;;;14.14;45.34
57452;BME280;54295;51.224;-0.164;2022-09-16T09:55:46;101020.04;;;14.20;45.42
57452;BME280;54295;51.224;-0.164;2022-09-16T09:58:22;101026.13;;;14.84;44.59
57452;BME280;54295;51.224;-0.164;2022-09-16T10:00:50;101023.95;;;14.76;44.58
57452;BME280;54295;51.224;-0.164;2022-09-16T10:03:18;101033.78;;;14.57;44.35
57452;BME280;54295;51.224;-0.164;2022-09-16T10:05:46;101031.39;;;14.42;43.51
57452;BME280;54295;51.224;-0.164;2022-09-16T10:08:21;101033.54;;;14.12;44.90
57452;BME280;54295;51.224;-0.164;2022-09-16T10:10:52;101032.83;;;14.87;43.61
57452;BME280;54295;51.224;-0.164;2022-09-16T10:13:20;101030.65;;;14.87;43.37
57452;BME280;54295;51.224;-0.164;2022-09-16T10:15:49;101023.77;;;14.40;44.63
57452;BME280;54295;51.224;-0.164;2022-09-16T10:18:23;101022.57;;;14.38;45.27
57452;BME280;54295;51.224;-0.164;2022-09-16T10:21:00;101019.27;;;14.40;44.19
57452;BME280;54295;51.224;-0.164;2022-09-16T10:23:28;101024.72;;;13.78;45.65
57452;BME280;54295;51.224;-0.164;2022-09-16T10:26:05;101025.33;;;13.51;45.22
57452;BME280;54295;51.224;-0.164;2022-09-16T10:28:32;101023.34;;;13.63;45.92
57452;BME280;54295;51.224;-0.164;2022-09-16T10:31:01;101021.74;;;13.85;45.37
57452;BME280;54295;51.224;-0.164;2022-09-16T10:33:30;101029.88;;;14.60;45.08
57452;BME280;54295;51.224;-0.164;2022-09-16T10:36:02;101022.12;;;14.03;45.72
57452;BME280;54295;51.224;-0.164;2022-09-16T10:38:36;101030.25;;;14.53;44.16
57452;BME280;54295;51.224;-0.164;2022-09-16T10:41:07;101030.62;;;14.12;44.70
57452;BME280;54295;51.224;-0.164;2022-09-16T10:43:36;101028.93;;;14.56;43.76
57452;BME280;54295;51.224;-0.164;2022-09-16T10:46:05;101029.20;;;13.65;45.35
57452;BME280;54295;51.224;-0.164;2022-09-16T10:48:33;101025.65;;;14.78;43.89
57452;BME280;54295;51.224;-0.164;2022-09-16T10:51:03;101033.13;;;14.46;42.77
57452;BME280;54295;51.224;-0.164;2022-09-16T10:53:33;101031.46;;;15.24;42.24
57452;BME280;54295;51.224;-0.164;2022-09-16T10:56:02;101034.99;;;15.25;42.61
57452;BME280;54295;51.224;-0.164;2022-09-16T10:58:30;101038.41;;;14.84;43.46
57452;BME280;54295;51.224;-0.164;2022-09-16T11:01:12;101040.93;;;14.38;43.44
57452;BME280;54295;51.224;-0.164;2022-09-16T11:04:01;101034.87;;;15.29;42.56
57452;BME280;54295;51.224;-0.164;2022-09-16T11:06:42;101031.33;;;14.62;43.26
57452;BME280;54295;51.224;-0.164;2022-09-16T11:09:16;101030.50;;;14.26;43.66
57452;BME280;54295;51.224;-0.164;2022-09-16T11:11:57;101030.06;;;14.11;43.04
57452;BME280;54295;51.224;-0.164;2022-09-16T11:14:37;101029.30;;;15.42;42.38
57452;BME280;54295;51.224;-0.164;2022-09-16T11:17:19;101025.61;;;15.14;40.60
57452;BME280;54295;51.224;-0.164;2022-09-16T11:20:02;101030.92;;;14.71;41.06
57452;BME280;54295;51.224;-0.164;2022-09-16T11:22:39;101029.65;;;15.49;40.85
57452;BME280;54295;51.224;-0.164;2022-09-16T11:25:33;101029.03;;;15.60;39.34
57452;BME280;54295;51.224;-0.164;2022-09-16T11:28:20;101036.31;;;15.06;39.76
57452;BME280;54295;51.224;-0.164;2022-09-16T11:30:54;101041.55;;;14.69;39.94
57452;BME280;54295;51.224;-0.164;2022-09-16T11:33:29;101037.59;;;13.83;41.23
57452;BME280;54295;51.224;-0.164;2022-09-16T11:36:22;101045.49;;;14.61;40.14
57452;BME280;54295;51.224;-0.164;2022-09-16T11:39:06;101042.54;;;14.19;40.80
57452;BME280;54295;51.224;-0.164;2022-09-16T11:41:40;101050.83;;;14.19;40.21
57452;BME280;54295;51.224;-0.164;2022-09-16T11:44:25;101039.83;;;14.27;40.41
57452;BME280;54295;51.224;-0.164;2022-09-16T11:47:07;101035.49;;;14.12;39.65
57452;BME280;54295;51.224;-0.164;2022-09-16T11:49:46;101038.89;;;13.54;40.30
57452;BME280;54295;51.224;-0.164;2022-09-16T11:52:31;101040.10;;;14.72;38.48
57452;BME280;54295;51.224;-0.164;2022-09-16T11:55:16;101037.07;;;14.26;39.66
57452;BME280;54295;51.224;-0.164;2022-09-16T11:57:49;101029.25;;;14.52;37.96
57452;BME280;54295;51.224;-0.164;2022-09-16T12:00:18;101032.80;;;15.65;37.88
57452;BME280;54295;51.224;-0.164;2022-09-16T12:02:51;101037.26;;;15.50;36.92
57452;BME280;54295;51.224;-0.164;2022-09-16T12:05:22;101035.69;;;15.19;36.05
57452;BME280;54295;51.224;-0.164;2022-09-16T12:07:56;101037.31;;;16.29;36.01
57452;BME280;54295;51.224;-0.164;2022-09-16T12:10:32;101032.04;;;15.38;36.12
57452;BME280;54295;51.224;-0.164;2022-09-16T12:13:03;101045.59;;;15.15;37.39
57452;BME280;54295;51.224;-0.164;2022-09-16T12:15:36;101041.36;;;14.48;36.76
57452;BME280;54295;51.224;-0.164;2022-09-16T12:18:09;101044.64;;;14.72;35.92
57452;BME280;54295;51.224;-0.164;2022-09-16T12:20:42;101044.02;;;14.73;35.84
57452;BME280;54295;51.224;-0.164;2022-09-16T12:23:16;101048.60;;;14.74;35.86
57452;BME280;54295;51.224;-0.164;2022-09-16T12:25:47;101047.27;;;13.98;37.29
57452;BME280;54295;51.224;-0.164;2022-09-16T12:28:23;101050.54;;;14.22;36.48
57452;BME280;54295;51.224;-0.164;2022-09-16T12:30:57;101057.15;;;13.96;37.92
57452;BME280;54295;51.224;-0.164;2022-09-16T12:33:30;101051.64;;;14.77;36.24
57452;BME280;54295;51.224;-0.164;2022-09-16T12:36:03;101045.33;;;14.70;36.53
57452;BME280;54295;51.224;-0.164;2022-09-16T12:38:31;101048.52;;;15.35;36.54
57452;BME280;54295;51.224;-0.164;2022-09-16T12:41:11;101051.57;;;15.50;35.49
57452;BME280;54295;51.224;-0.164;2022-09-16T12:44:05;101053.67;;;16.35;34.72
57452;BME280;54295;51.224;-0.164;2022-09-16T12:46:50;101055.56;;;15.30;35.56
57452;BME280;54295;51.224;-0.164;2022-09-16T12:49:35;101050.94;;;15.29;35.67
57452;BME280;54295;51.224;-0.164;2022-09-16T12:52:25;101053.52;;;15.17;36.22
57452;BME280;54295;51.224;-0.164;2022-09-16T12:56:07;101054.55;;;15.16;36.05
57452;BME280;54295;51.224;-0.164;2022-09-16T13:00:56;101045.34;;;16.94;34.95
57452;BME280;54295;51.224;-0.164;2022-09-16T13:03:29;101045.70;;;15.93;35.89
57452;BME280;54295;51.224;-0.164;2022-09-16T13:06:05;101035.04;;;16.04;33.51
57452;BME280;54295;51.224;-0.164;2022-09-16T13:08:33;101038.15;;;16.41;33.91